This is the latest recevied weather packets stored in our database for station/object W5HKR. If no packets are shown the sender has not sent any weather packets the latest 10 day(s).
| Time | Temp. | Humidity | Pressure | Rain* | Wind** | Luminosity | Snow |
|---|---|---|---|---|---|---|---|
| 1777862910 | 18.33° C | 91% | 990.6 hPa | 0 mm | - | - | - |
| 1777862610 | 18.33° C | 91% | 990.6 hPa | 0 mm | - | - | - |
| 1777862310 | 20.56° C | 57% | 988.9 hPa | 0 mm | - | - | - |
| 1777862040 | 20.56° C | 56% | 988.5 hPa | 0 mm | - | - | - |
| 1777862009 | 18.33° C | 91% | 990.6 hPa | 0 mm | - | - | - |
| 1777861709 | 18.33° C | 91% | 990.6 hPa | 0 mm | - | - | - |
| 1777861409 | 20.56° C | 55% | 988.9 hPa | 0 mm | - | - | - |
| 1777861110 | 20.56° C | 54% | 989 hPa | 0 mm | - | - | - |
| 1777860960 | 18.33° C | 91% | 990.6 hPa | 0 mm | - | - | - |
| 1777860810 | 18.33° C | 91% | 990.6 hPa | 0 mm | - | - | - |
| 1777860511 | 20.56° C | 54% | 988.6 hPa | 0 mm | - | - | - |
| 1777860210 | 20.56° C | 54% | 988.8 hPa | 0 mm | - | - | - |
| 1777859880 | 18.33° C | 91% | 990.6 hPa | 0 mm | - | - | - |
| 1777859309 | 18.33° C | 91% | 990.6 hPa | 0 mm | - | - | - |
| 1777858800 | 18.33° C | 91% | 990.6 hPa | 0 mm | - | - | - |
| 1777858710 | 21.11° C | 50% | 988.2 hPa | 0 mm | - | - | - |
| 1777858410 | 21.67° C | 49% | 988.8 hPa | 0 mm | - | - | - |
| 1777858110 | 21.67° C | 49% | 988.7 hPa | 0 mm | - | - | - |
| 1777857809 | 18.33° C | 91% | 990.6 hPa | 0 mm | - | - | - |
| 1777857721 | 18.33° C | 91% | 990.6 hPa | 0 mm | - | - | - |
| 1777857510 | 22.22° C | 47% | 988.2 hPa | 0 mm | - | - | - |
| 1777857210 | 22.22° C | 47% | 987.8 hPa | 0 mm | - | - | - |
| 1777856910 | 22.22° C | 47% | 987.9 hPa | 0 mm | - | - | - |
| 1777856640 | 18.33° C | 91% | 990.6 hPa | 0 mm | - | - | - |
| 1777856610 | 22.78° C | 45% | 988.1 hPa | 0 mm | - | - | - |
* Rain latest hour (hover to see other rain measurements)
** Current wind speed in m/s (hover to see current wind gust speed)